sensor_id;sensor_type;location;lat;lon;timestamp;temperature;humidity
17571;DHT22;8903;52.220;20.978;2022-12-07T00:01:16;1.40;99.90
17571;DHT22;8903;52.220;20.978;2022-12-07T00:03:45;1.50;99.90
17571;DHT22;8903;52.220;20.978;2022-12-07T00:06:14;1.50;99.90
17571;DHT22;8903;52.220;20.978;2022-12-07T00:08:43;1.50;99.90
17571;DHT22;8903;52.220;20.978;2022-12-07T00:11:13;1.50;99.90
17571;DHT22;8903;52.220;20.978;2022-12-07T00:13:41;1.50;99.90
17571;DHT22;8903;52.220;20.978;2022-12-07T00:16:11;1.60;99.90
17571;DHT22;8903;52.220;20.978;2022-12-07T00:18:38;1.60;99.90
17571;DHT22;8903;52.220;20.978;2022-12-07T00:21:09;1.60;99.90
17571;DHT22;8903;52.220;20.978;2022-12-07T00:23:36;1.60;99.90
17571;DHT22;8903;52.220;20.978;2022-12-07T00:26:05;1.60;99.90
17571;DHT22;8903;52.220;20.978;2022-12-07T00:28:33;1.70;99.90
17571;DHT22;8903;52.220;20.978;2022-12-07T00:31:05;1.70;99.90
17571;DHT22;8903;52.220;20.978;2022-12-07T00:33:35;1.70;99.90
17571;DHT22;8903;52.220;20.978;2022-12-07T00:36:07;1.70;99.90
17571;DHT22;8903;52.220;20.978;2022-12-07T00:38:35;1.70;99.90
17571;DHT22;8903;52.220;20.978;2022-12-07T00:41:04;1.70;99.90
17571;DHT22;8903;52.220;20.978;2022-12-07T00:43:33;1.70;99.90
17571;DHT22;8903;52.220;20.978;2022-12-07T00:46:00;1.70;99.90
17571;DHT22;8903;52.220;20.978;2022-12-07T00:48:27;1.80;99.90
17571;DHT22;8903;52.220;20.978;2022-12-07T00:50:54;1.80;99.90
17571;DHT22;8903;52.220;20.978;2022-12-07T00:53:21;1.70;99.90
17571;DHT22;8903;52.220;20.978;2022-12-07T00:55:48;1.80;99.90
17571;DHT22;8903;52.220;20.978;2022-12-07T00:58:15;1.70;99.90
17571;DHT22;8903;52.220;20.978;2022-12-07T01:00:43;1.80;99.90
17571;DHT22;8903;52.220;20.978;2022-12-07T01:03:13;1.70;99.90
17571;DHT22;8903;52.220;20.978;2022-12-07T01:05:40;1.80;99.90
17571;DHT22;8903;52.220;20.978;2022-12-07T01:08:15;1.80;99.90
17571;DHT22;8903;52.220;20.978;2022-12-07T01:10:42;1.80;99.90
17571;DHT22;8903;52.220;20.978;2022-12-07T01:13:09;1.80;99.90
17571;DHT22;8903;52.220;20.978;2022-12-07T01:15:39;1.90;99.90
17571;DHT22;8903;52.220;20.978;2022-12-07T01:18:07;1.80;99.90
17571;DHT22;8903;52.220;20.978;2022-12-07T01:20:35;1.90;99.90
17571;DHT22;8903;52.220;20.978;2022-12-07T01:23:02;1.90;99.90
17571;DHT22;8903;52.220;20.978;2022-12-07T01:25:29;2.00;99.90
17571;DHT22;8903;52.220;20.978;2022-12-07T01:27:56;2.00;99.90
17571;DHT22;8903;52.220;20.978;2022-12-07T01:30:23;2.00;99.90
17571;DHT22;8903;52.220;20.978;2022-12-07T01:32:50;2.10;99.90
17571;DHT22;8903;52.220;20.978;2022-12-07T01:35:18;2.10;99.90
17571;DHT22;8903;52.220;20.978;2022-12-07T01:37:45;2.10;99.90
17571;DHT22;8903;52.220;20.978;2022-12-07T01:40:13;2.20;99.90
17571;DHT22;8903;52.220;20.978;2022-12-07T01:42:39;2.10;99.90
17571;DHT22;8903;52.220;20.978;2022-12-07T01:45:36;2.20;99.90
17571;DHT22;8903;52.220;20.978;2022-12-07T01:48:04;2.20;99.90
17571;DHT22;8903;52.220;20.978;2022-12-07T01:50:33;2.20;99.90
17571;DHT22;8903;52.220;20.978;2022-12-07T01:53:04;2.20;99.90
17571;DHT22;8903;52.220;20.978;2022-12-07T01:55:32;2.20;99.90
17571;DHT22;8903;52.220;20.978;2022-12-07T01:57:59;2.20;99.90
17571;DHT22;8903;52.220;20.978;2022-12-07T02:00:26;2.20;99.90
17571;DHT22;8903;52.220;20.978;2022-12-07T02:02:55;2.20;99.90
17571;DHT22;8903;52.220;20.978;2022-12-07T02:05:24;2.20;99.90
17571;DHT22;8903;52.220;20.978;2022-12-07T02:07:55;2.20;99.90
17571;DHT22;8903;52.220;20.978;2022-12-07T02:10:25;2.30;99.90
17571;DHT22;8903;52.220;20.978;2022-12-07T02:12:54;2.20;99.90
17571;DHT22;8903;52.220;20.978;2022-12-07T02:15:26;2.20;99.90
17571;DHT22;8903;52.220;20.978;2022-12-07T02:18:03;2.20;99.90
17571;DHT22;8903;52.220;20.978;2022-12-07T02:20:37;2.20;99.90
17571;DHT22;8903;52.220;20.978;2022-12-07T02:23:35;2.20;99.90
17571;DHT22;8903;52.220;20.978;2022-12-07T02:26:37;2.20;99.90
17571;DHT22;8903;52.220;20.978;2022-12-07T02:29:21;2.20;99.90
17571;DHT22;8903;52.220;20.978;2022-12-07T02:31:55;2.20;99.90
17571;DHT22;8903;52.220;20.978;2022-12-07T02:34:32;2.20;99.90
17571;DHT22;8903;52.220;20.978;2022-12-07T02:37:06;2.20;99.90
17571;DHT22;8903;52.220;20.978;2022-12-07T02:39:41;2.20;99.90
17571;DHT22;8903;52.220;20.978;2022-12-07T02:42:14;2.10;99.90
17571;DHT22;8903;52.220;20.978;2022-12-07T02:44:44;2.10;99.90
17571;DHT22;8903;52.220;20.978;2022-12-07T02:47:14;2.10;99.90
17571;DHT22;8903;52.220;20.978;2022-12-07T02:49:42;2.10;99.90
17571;DHT22;8903;52.220;20.978;2022-12-07T02:52:09;2.00;99.90
17571;DHT22;8903;52.220;20.978;2022-12-07T02:54:36;2.10;99.90
17571;DHT22;8903;52.220;20.978;2022-12-07T02:57:13;2.00;99.90
17571;DHT22;8903;52.220;20.978;2022-12-07T02:59:53;2.00;99.90
17571;DHT22;8903;52.220;20.978;2022-12-07T03:02:28;2.00;99.90
17571;DHT22;8903;52.220;20.978;2022-12-07T03:05:06;1.90;99.90
17571;DHT22;8903;52.220;20.978;2022-12-07T03:07:43;1.90;99.90
17571;DHT22;8903;52.220;20.978;2022-12-07T03:10:19;1.90;99.90
17571;DHT22;8903;52.220;20.978;2022-12-07T03:12:56;1.90;99.90
17571;DHT22;8903;52.220;20.978;2022-12-07T03:15:32;1.80;99.90
17571;DHT22;8903;52.220;20.978;2022-12-07T03:18:01;1.80;99.90
17571;DHT22;8903;52.220;20.978;2022-12-07T03:20:30;1.80;99.90
17571;DHT22;8903;52.220;20.978;2022-12-07T03:22:58;1.80;99.90
17571;DHT22;8903;52.220;20.978;2022-12-07T03:25:26;1.80;99.90
17571;DHT22;8903;52.220;20.978;2022-12-07T03:27:56;1.70;99.90
17571;DHT22;8903;52.220;20.978;2022-12-07T03:30:28;1.80;99.90
17571;DHT22;8903;52.220;20.978;2022-12-07T03:33:02;1.80;99.90
17571;DHT22;8903;52.220;20.978;2022-12-07T03:35:32;1.80;99.90
17571;DHT22;8903;52.220;20.978;2022-12-07T03:38:08;1.70;99.90
17571;DHT22;8903;52.220;20.978;2022-12-07T03:40:43;1.70;99.90
17571;DHT22;8903;52.220;20.978;2022-12-07T03:43:11;1.70;99.90
17571;DHT22;8903;52.220;20.978;2022-12-07T03:45:41;1.70;99.90
17571;DHT22;8903;52.220;20.978;2022-12-07T03:48:15;1.60;99.90
17571;DHT22;8903;52.220;20.978;2022-12-07T03:50:50;1.60;99.90
17571;DHT22;8903;52.220;20.978;2022-12-07T03:53:23;1.60;99.90
17571;DHT22;8903;52.220;20.978;2022-12-07T03:55:52;1.60;99.90
17571;DHT22;8903;52.220;20.978;2022-12-07T03:58:21;1.60;99.90
17571;DHT22;8903;52.220;20.978;2022-12-07T04:00:51;1.60;99.90
17571;DHT22;8903;52.220;20.978;2022-12-07T04:03:18;1.60;99.90
17571;DHT22;8903;52.220;20.978;2022-12-07T04:05:45;1.50;99.90
17571;DHT22;8903;52.220;20.978;2022-12-07T04:08:12;1.50;99.90
17571;DHT22;8903;52.220;20.978;2022-12-07T04:10:40;1.50;99.90
17571;DHT22;8903;52.220;20.978;2022-12-07T04:13:07;1.50;99.90
17571;DHT22;8903;52.220;20.978;2022-12-07T04:15:33;1.60;99.90
17571;DHT22;8903;52.220;20.978;2022-12-07T04:18:02;1.50;99.90
17571;DHT22;8903;52.220;20.978;2022-12-07T04:20:29;1.50;99.90
17571;DHT22;8903;52.220;20.978;2022-12-07T04:22:56;1.50;99.90
17571;DHT22;8903;52.220;20.978;2022-12-07T04:25:23;1.50;99.90
17571;DHT22;8903;52.220;20.978;2022-12-07T04:27:50;1.50;99.90
17571;DHT22;8903;52.220;20.978;2022-12-07T04:30:17;1.60;99.90
17571;DHT22;8903;52.220;20.978;2022-12-07T04:32:44;1.50;99.90
17571;DHT22;8903;52.220;20.978;2022-12-07T04:35:12;1.50;99.90
17571;DHT22;8903;52.220;20.978;2022-12-07T04:37:39;1.50;99.90
17571;DHT22;8903;52.220;20.978;2022-12-07T04:40:08;1.50;99.90
17571;DHT22;8903;52.220;20.978;2022-12-07T04:42:37;1.50;99.90
17571;DHT22;8903;52.220;20.978;2022-12-07T04:45:04;1.50;99.90
17571;DHT22;8903;52.220;20.978;2022-12-07T04:47:32;1.50;99.90
17571;DHT22;8903;52.220;20.978;2022-12-07T04:49:58;1.50;99.90
17571;DHT22;8903;52.220;20.978;2022-12-07T04:52:27;1.50;99.90
17571;DHT22;8903;52.220;20.978;2022-12-07T04:54:53;1.50;99.90
17571;DHT22;8903;52.220;20.978;2022-12-07T04:57:20;1.50;99.90
17571;DHT22;8903;52.220;20.978;2022-12-07T04:59:47;1.50;99.90
17571;DHT22;8903;52.220;20.978;2022-12-07T05:02:14;1.40;99.90
17571;DHT22;8903;52.220;20.978;2022-12-07T05:04:41;1.40;99.90
17571;DHT22;8903;52.220;20.978;2022-12-07T05:07:08;1.40;99.90
17571;DHT22;8903;52.220;20.978;2022-12-07T05:09:36;1.40;99.90
17571;DHT22;8903;52.220;20.978;2022-12-07T05:12:03;1.40;99.90
17571;DHT22;8903;52.220;20.978;2022-12-07T05:14:30;1.40;99.90
17571;DHT22;8903;52.220;20.978;2022-12-07T05:16:57;1.40;99.90
17571;DHT22;8903;52.220;20.978;2022-12-07T05:19:24;1.40;99.90
17571;DHT22;8903;52.220;20.978;2022-12-07T05:21:51;1.40;99.90
17571;DHT22;8903;52.220;20.978;2022-12-07T05:24:18;1.30;99.90
17571;DHT22;8903;52.220;20.978;2022-12-07T05:26:47;1.30;99.90
17571;DHT22;8903;52.220;20.978;2022-12-07T05:29:15;1.30;99.90
17571;DHT22;8903;52.220;20.978;2022-12-07T05:31:43;1.30;99.90
17571;DHT22;8903;52.220;20.978;2022-12-07T05:34:10;1.30;99.90
17571;DHT22;8903;52.220;20.978;2022-12-07T05:36:38;1.30;99.90
17571;DHT22;8903;52.220;20.978;2022-12-07T05:39:05;1.30;99.90
17571;DHT22;8903;52.220;20.978;2022-12-07T05:41:32;1.30;99.90
17571;DHT22;8903;52.220;20.978;2022-12-07T05:44:18;1.30;99.90
17571;DHT22;8903;52.220;20.978;2022-12-07T05:46:45;1.20;99.90
17571;DHT22;8903;52.220;20.978;2022-12-07T05:49:13;1.30;99.90
17571;DHT22;8903;52.220;20.978;2022-12-07T05:51:40;1.20;99.90
17571;DHT22;8903;52.220;20.978;2022-12-07T05:54:07;1.30;99.90
17571;DHT22;8903;52.220;20.978;2022-12-07T05:56:33;1.20;99.90
17571;DHT22;8903;52.220;20.978;2022-12-07T05:59:00;1.20;99.90
17571;DHT22;8903;52.220;20.978;2022-12-07T06:01:46;1.20;99.90
17571;DHT22;8903;52.220;20.978;2022-12-07T06:04:13;1.20;99.90
17571;DHT22;8903;52.220;20.978;2022-12-07T06:06:40;1.20;99.90
17571;DHT22;8903;52.220;20.978;2022-12-07T06:09:07;1.20;99.90
17571;DHT22;8903;52.220;20.978;2022-12-07T06:11:35;1.20;99.90
17571;DHT22;8903;52.220;20.978;2022-12-07T06:14:19;1.10;99.90
17571;DHT22;8903;52.220;20.978;2022-12-07T06:16:47;1.10;99.90
17571;DHT22;8903;52.220;20.978;2022-12-07T06:19:14;1.10;99.90
17571;DHT22;8903;52.220;20.978;2022-12-07T06:21:41;1.10;99.90
17571;DHT22;8903;52.220;20.978;2022-12-07T06:24:10;1.10;99.90
17571;DHT22;8903;52.220;20.978;2022-12-07T06:26:37;1.10;99.90
17571;DHT22;8903;52.220;20.978;2022-12-07T06:29:05;1.20;99.90
17571;DHT22;8903;52.220;20.978;2022-12-07T06:31:32;1.10;99.90
17571;DHT22;8903;52.220;20.978;2022-12-07T06:34:00;1.10;99.90
17571;DHT22;8903;52.220;20.978;2022-12-07T06:36:28;1.10;99.90
17571;DHT22;8903;52.220;20.978;2022-12-07T06:38:55;1.10;99.90
17571;DHT22;8903;52.220;20.978;2022-12-07T06:41:22;1.10;99.90
17571;DHT22;8903;52.220;20.978;2022-12-07T06:43:50;1.10;99.90
17571;DHT22;8903;52.220;20.978;2022-12-07T06:46:17;1.10;99.90
17571;DHT22;8903;52.220;20.978;2022-12-07T06:48:44;1.00;99.90
17571;DHT22;8903;52.220;20.978;2022-12-07T06:51:12;1.10;99.90
17571;DHT22;8903;52.220;20.978;2022-12-07T06:53:39;1.00;99.90
17571;DHT22;8903;52.220;20.978;2022-12-07T06:56:06;1.00;99.90
17571;DHT22;8903;52.220;20.978;2022-12-07T06:58:33;1.00;99.90
17571;DHT22;8903;52.220;20.978;2022-12-07T07:01:00;1.00;99.90
17571;DHT22;8903;52.220;20.978;2022-12-07T07:03:28;1.00;99.90
17571;DHT22;8903;52.220;20.978;2022-12-07T07:05:55;1.00;99.90
17571;DHT22;8903;52.220;20.978;2022-12-07T07:08:23;1.10;99.90
17571;DHT22;8903;52.220;20.978;2022-12-07T07:10:50;1.10;99.90
17571;DHT22;8903;52.220;20.978;2022-12-07T07:13:17;1.10;99.90
17571;DHT22;8903;52.220;20.978;2022-12-07T07:15:44;1.10;99.90
17571;DHT22;8903;52.220;20.978;2022-12-07T07:18:12;1.10;99.90
17571;DHT22;8903;52.220;20.978;2022-12-07T07:20:39;1.10;99.90
17571;DHT22;8903;52.220;20.978;2022-12-07T07:23:06;1.10;99.90
17571;DHT22;8903;52.220;20.978;2022-12-07T07:25:34;1.00;99.90
17571;DHT22;8903;52.220;20.978;2022-12-07T07:28:01;1.00;99.90
17571;DHT22;8903;52.220;20.978;2022-12-07T07:30:29;1.10;99.90
17571;DHT22;8903;52.220;20.978;2022-12-07T07:32:56;1.00;99.90
17571;DHT22;8903;52.220;20.978;2022-12-07T07:35:24;1.10;99.90
17571;DHT22;8903;52.220;20.978;2022-12-07T07:37:51;1.10;99.90
17571;DHT22;8903;52.220;20.978;2022-12-07T07:40:20;1.10;99.90
17571;DHT22;8903;52.220;20.978;2022-12-07T07:42:49;1.10;99.90
17571;DHT22;8903;52.220;20.978;2022-12-07T07:45:18;1.20;99.90
17571;DHT22;8903;52.220;20.978;2022-12-07T07:47:45;1.10;99.90
17571;DHT22;8903;52.220;20.978;2022-12-07T07:50:12;1.20;99.90
17571;DHT22;8903;52.220;20.978;2022-12-07T07:52:39;1.20;99.90
17571;DHT22;8903;52.220;20.978;2022-12-07T07:55:06;1.20;99.90
17571;DHT22;8903;52.220;20.978;2022-12-07T07:57:34;1.20;99.90
17571;DHT22;8903;52.220;20.978;2022-12-07T08:00:05;1.20;99.90
17571;DHT22;8903;52.220;20.978;2022-12-07T08:02:38;1.20;99.90
17571;DHT22;8903;52.220;20.978;2022-12-07T08:05:06;1.20;99.90
17571;DHT22;8903;52.220;20.978;2022-12-07T08:07:33;1.20;99.90
17571;DHT22;8903;52.220;20.978;2022-12-07T08:10:01;1.30;99.90
17571;DHT22;8903;52.220;20.978;2022-12-07T08:12:28;1.30;99.90
17571;DHT22;8903;52.220;20.978;2022-12-07T08:14:55;1.30;99.90
17571;DHT22;8903;52.220;20.978;2022-12-07T08:17:24;1.40;99.90
17571;DHT22;8903;52.220;20.978;2022-12-07T08:19:51;1.40;99.90
17571;DHT22;8903;52.220;20.978;2022-12-07T08:22:18;1.40;99.90
17571;DHT22;8903;52.220;20.978;2022-12-07T08:24:45;1.40;99.90
17571;DHT22;8903;52.220;20.978;2022-12-07T08:27:12;1.40;99.90
17571;DHT22;8903;52.220;20.978;2022-12-07T08:29:39;1.40;99.90
17571;DHT22;8903;52.220;20.978;2022-12-07T08:32:06;1.50;99.90
17571;DHT22;8903;52.220;20.978;2022-12-07T08:34:34;1.50;99.90
17571;DHT22;8903;52.220;20.978;2022-12-07T08:37:01;1.60;99.90
17571;DHT22;8903;52.220;20.978;2022-12-07T08:39:28;1.50;99.90
17571;DHT22;8903;52.220;20.978;2022-12-07T08:41:55;1.60;99.90
17571;DHT22;8903;52.220;20.978;2022-12-07T08:44:22;1.60;99.90
17571;DHT22;8903;52.220;20.978;2022-12-07T08:46:51;1.60;99.90
17571;DHT22;8903;52.220;20.978;2022-12-07T08:49:22;1.70;99.90
17571;DHT22;8903;52.220;20.978;2022-12-07T08:51:51;1.70;99.90
17571;DHT22;8903;52.220;20.978;2022-12-07T08:54:19;1.80;99.90
17571;DHT22;8903;52.220;20.978;2022-12-07T08:56:47;1.80;99.90
17571;DHT22;8903;52.220;20.978;2022-12-07T08:59:17;1.80;99.90
17571;DHT22;8903;52.220;20.978;2022-12-07T09:01:45;1.80;99.90
17571;DHT22;8903;52.220;20.978;2022-12-07T09:04:12;1.90;99.90
17571;DHT22;8903;52.220;20.978;2022-12-07T09:06:40;1.90;99.90
17571;DHT22;8903;52.220;20.978;2022-12-07T09:09:09;1.90;99.90
17571;DHT22;8903;52.220;20.978;2022-12-07T09:11:37;2.00;99.90
17571;DHT22;8903;52.220;20.978;2022-12-07T09:14:06;2.00;99.90
17571;DHT22;8903;52.220;20.978;2022-12-07T09:16:33;2.00;99.90
17571;DHT22;8903;52.220;20.978;2022-12-07T09:19:00;2.00;99.90
17571;DHT22;8903;52.220;20.978;2022-12-07T09:21:27;2.10;99.90
17571;DHT22;8903;52.220;20.978;2022-12-07T09:23:54;2.10;99.90
17571;DHT22;8903;52.220;20.978;2022-12-07T09:26:22;2.10;99.90
17571;DHT22;8903;52.220;20.978;2022-12-07T09:28:49;2.20;99.90
17571;DHT22;8903;52.220;20.978;2022-12-07T09:31:16;2.20;99.90
17571;DHT22;8903;52.220;20.978;2022-12-07T09:33:43;2.20;99.90
17571;DHT22;8903;52.220;20.978;2022-12-07T09:36:10;2.20;99.90
17571;DHT22;8903;52.220;20.978;2022-12-07T09:38:37;2.20;99.90
17571;DHT22;8903;52.220;20.978;2022-12-07T09:41:05;2.30;99.90
17571;DHT22;8903;52.220;20.978;2022-12-07T09:43:35;2.30;99.90
17571;DHT22;8903;52.220;20.978;2022-12-07T09:46:03;2.30;99.90
17571;DHT22;8903;52.220;20.978;2022-12-07T09:48:33;2.30;99.90
17571;DHT22;8903;52.220;20.978;2022-12-07T09:51:10;2.40;99.90
17571;DHT22;8903;52.220;20.978;2022-12-07T09:53:39;2.40;99.90
17571;DHT22;8903;52.220;20.978;2022-12-07T09:56:11;2.40;99.90
17571;DHT22;8903;52.220;20.978;2022-12-07T09:58:42;2.40;99.90
17571;DHT22;8903;52.220;20.978;2022-12-07T10:01:12;2.40;99.90
17571;DHT22;8903;52.220;20.978;2022-12-07T10:03:50;2.30;99.90
17571;DHT22;8903;52.220;20.978;2022-12-07T10:06:17;2.40;99.90
17571;DHT22;8903;52.220;20.978;2022-12-07T10:08:44;2.40;99.90
17571;DHT22;8903;52.220;20.978;2022-12-07T10:11:12;2.40;99.90
17571;DHT22;8903;52.220;20.978;2022-12-07T10:13:43;2.40;99.90
17571;DHT22;8903;52.220;20.978;2022-12-07T10:16:31;2.40;99.90
17571;DHT22;8903;52.220;20.978;2022-12-07T10:19:18;2.40;99.90
17571;DHT22;8903;52.220;20.978;2022-12-07T10:22:03;2.40;99.90
17571;DHT22;8903;52.220;20.978;2022-12-07T10:24:31;2.50;99.90
17571;DHT22;8903;52.220;20.978;2022-12-07T10:26:58;2.50;99.90
17571;DHT22;8903;52.220;20.978;2022-12-07T10:29:30;2.50;99.90
17571;DHT22;8903;52.220;20.978;2022-12-07T10:31:59;2.50;99.90
17571;DHT22;8903;52.220;20.978;2022-12-07T10:34:28;2.50;99.90
17571;DHT22;8903;52.220;20.978;2022-12-07T10:37:13;2.50;99.90
17571;DHT22;8903;52.220;20.978;2022-12-07T10:39:42;2.50;99.90
17571;DHT22;8903;52.220;20.978;2022-12-07T10:42:17;2.50;99.90
17571;DHT22;8903;52.220;20.978;2022-12-07T10:44:46;2.50;99.90
17571;DHT22;8903;52.220;20.978;2022-12-07T10:47:28;2.50;99.90
17571;DHT22;8903;52.220;20.978;2022-12-07T10:50:31;2.50;99.90
17571;DHT22;8903;52.220;20.978;2022-12-07T10:53:36;2.60;99.90
17571;DHT22;8903;52.220;20.978;2022-12-07T10:56:44;2.60;99.90
17571;DHT22;8903;52.220;20.978;2022-12-07T11:02:24;2.60;99.90
17571;DHT22;8903;52.220;20.978;2022-12-07T11:05:05;2.60;99.90
17571;DHT22;8903;52.220;20.978;2022-12-07T11:07:42;2.70;99.90
17571;DHT22;8903;52.220;20.978;2022-12-07T11:10:18;2.70;99.90
17571;DHT22;8903;52.220;20.978;2022-12-07T11:13:04;2.70;99.90
17571;DHT22;8903;52.220;20.978;2022-12-07T11:15:51;2.70;99.90
17571;DHT22;8903;52.220;20.978;2022-12-07T11:18:27;2.70;99.90
17571;DHT22;8903;52.220;20.978;2022-12-07T11:21:04;2.70;99.90
17571;DHT22;8903;52.220;20.978;2022-12-07T11:23:43;2.70;99.90
17571;DHT22;8903;52.220;20.978;2022-12-07T11:26:19;2.70;99.90
17571;DHT22;8903;52.220;20.978;2022-12-07T11:29:09;2.70;99.90
17571;DHT22;8903;52.220;20.978;2022-12-07T11:31:51;2.70;99.90
17571;DHT22;8903;52.220;20.978;2022-12-07T11:34:27;2.70;99.90
17571;DHT22;8903;52.220;20.978;2022-12-07T11:37:00;2.80;99.90
17571;DHT22;8903;52.220;20.978;2022-12-07T11:39:35;2.80;99.90
17571;DHT22;8903;52.220;20.978;2022-12-07T11:42:06;2.80;99.90
17571;DHT22;8903;52.220;20.978;2022-12-07T11:44:48;2.80;99.90
17571;DHT22;8903;52.220;20.978;2022-12-07T11:47:22;2.80;99.90
17571;DHT22;8903;52.220;20.978;2022-12-07T11:49:56;2.80;99.90
17571;DHT22;8903;52.220;20.978;2022-12-07T11:52:32;2.80;99.90
17571;DHT22;8903;52.220;20.978;2022-12-07T11:55:16;2.90;99.90
17571;DHT22;8903;52.220;20.978;2022-12-07T11:57:46;2.90;99.90
17571;DHT22;8903;52.220;20.978;2022-12-07T12:00:18;2.90;99.90
17571;DHT22;8903;52.220;20.978;2022-12-07T12:02:49;3.00;99.90
17571;DHT22;8903;52.220;20.978;2022-12-07T12:05:21;3.00;99.90
17571;DHT22;8903;52.220;20.978;2022-12-07T12:07:55;3.00;99.90
17571;DHT22;8903;52.220;20.978;2022-12-07T12:10:34;3.00;99.90
17571;DHT22;8903;52.220;20.978;2022-12-07T12:13:18;3.00;99.90
17571;DHT22;8903;52.220;20.978;2022-12-07T12:19:00;2.80;99.90
17571;DHT22;8903;52.220;20.978;2022-12-07T12:21:32;2.70;99.90
17571;DHT22;8903;52.220;20.978;2022-12-07T12:24:04;2.60;99.90
17571;DHT22;8903;52.220;20.978;2022-12-07T12:26:35;2.50;99.90
17571;DHT22;8903;52.220;20.978;2022-12-07T12:29:05;2.60;99.90
17571;DHT22;8903;52.220;20.978;2022-12-07T12:31:37;2.60;99.90
17571;DHT22;8903;52.220;20.978;2022-12-07T12:34:29;2.50;99.90
17571;DHT22;8903;52.220;20.978;2022-12-07T12:36:58;2.60;99.90
17571;DHT22;8903;52.220;20.978;2022-12-07T12:39:25;2.60;99.90
17571;DHT22;8903;52.220;20.978;2022-12-07T12:41:56;2.60;99.90
17571;DHT22;8903;52.220;20.978;2022-12-07T12:47:55;2.50;99.90
17571;DHT22;8903;52.220;20.978;2022-12-07T12:50:25;2.50;99.90
17571;DHT22;8903;52.220;20.978;2022-12-07T12:52:58;2.50;99.90
17571;DHT22;8903;52.220;20.978;2022-12-07T12:58:43;2.50;99.90
17571;DHT22;8903;52.220;20.978;2022-12-07T13:01:44;2.50;99.90
17571;DHT22;8903;52.220;20.978;2022-12-07T13:04:28;2.50;99.90
17571;DHT22;8903;52.220;20.978;2022-12-07T13:06:57;2.50;99.90
17571;DHT22;8903;52.220;20.978;2022-12-07T13:09:28;2.50;99.90
17571;DHT22;8903;52.220;20.978;2022-12-07T13:12:01;2.50;99.90
17571;DHT22;8903;52.220;20.978;2022-12-07T13:14:53;2.50;99.90
17571;DHT22;8903;52.220;20.978;2022-12-07T13:17:55;2.50;99.90
17571;DHT22;8903;52.220;20.978;2022-12-07T13:20:44;2.50;99.90
17571;DHT22;8903;52.220;20.978;2022-12-07T13:23:12;2.50;99.90
17571;DHT22;8903;52.220;20.978;2022-12-07T13:25:51;2.50;99.90
17571;DHT22;8903;52.220;20.978;2022-12-07T13:28:22;2.50;99.90
17571;DHT22;8903;52.220;20.978;2022-12-07T13:31:23;2.50;99.90
17571;DHT22;8903;52.220;20.978;2022-12-07T13:33:50;2.50;99.90
17571;DHT22;8903;52.220;20.978;2022-12-07T13:36:22;2.50;99.90
17571;DHT22;8903;52.220;20.978;2022-12-07T13:39:10;2.50;99.90
17571;DHT22;8903;52.220;20.978;2022-12-07T13:41:42;2.40;99.90
17571;DHT22;8903;52.220;20.978;2022-12-07T13:44:11;2.40;99.90
17571;DHT22;8903;52.220;20.978;2022-12-07T13:46:49;2.40;99.90
17571;DHT22;8903;52.220;20.978;2022-12-07T13:49:21;2.40;99.90
17571;DHT22;8903;52.220;20.978;2022-12-07T13:51:48;2.30;99.90
17571;DHT22;8903;52.220;20.978;2022-12-07T13:54:16;2.30;99.90
17571;DHT22;8903;52.220;20.978;2022-12-07T13:56:51;2.30;99.90
17571;DHT22;8903;52.220;20.978;2022-12-07T13:59:19;2.50;99.90
17571;DHT22;8903;52.220;20.978;2022-12-07T14:01:50;2.30;99.90
17571;DHT22;8903;52.220;20.978;2022-12-07T14:04:30;2.20;99.90
17571;DHT22;8903;52.220;20.978;2022-12-07T14:06:58;2.20;99.90
17571;DHT22;8903;52.220;20.978;2022-12-07T14:09:28;2.20;99.90
17571;DHT22;8903;52.220;20.978;2022-12-07T14:11:58;2.20;99.90
17571;DHT22;8903;52.220;20.978;2022-12-07T14:14:28;2.10;99.90
17571;DHT22;8903;52.220;20.978;2022-12-07T14:16:59;2.00;99.90
17571;DHT22;8903;52.220;20.978;2022-12-07T14:19:43;2.00;99.90
17571;DHT22;8903;52.220;20.978;2022-12-07T14:22:25;2.10;99.90
17571;DHT22;8903;52.220;20.978;2022-12-07T14:25:13;2.00;99.90
17571;DHT22;8903;52.220;20.978;2022-12-07T14:27:53;1.90;99.90
17571;DHT22;8903;52.220;20.978;2022-12-07T14:30:25;1.90;99.90
17571;DHT22;8903;52.220;20.978;2022-12-07T14:32:58;1.90;99.90
17571;DHT22;8903;52.220;20.978;2022-12-07T14:35:29;1.80;99.90
17571;DHT22;8903;52.220;20.978;2022-12-07T14:41:24;1.70;99.90
17571;DHT22;8903;52.220;20.978;2022-12-07T14:44:30;1.70;99.90
17571;DHT22;8903;52.220;20.978;2022-12-07T14:47:10;1.60;99.90
17571;DHT22;8903;52.220;20.978;2022-12-07T14:49:37;1.60;99.90
17571;DHT22;8903;52.220;20.978;2022-12-07T14:52:05;1.60;99.90
17571;DHT22;8903;52.220;20.978;2022-12-07T14:54:35;1.50;99.90
17571;DHT22;8903;52.220;20.978;2022-12-07T14:57:05;1.50;99.90
17571;DHT22;8903;52.220;20.978;2022-12-07T15:00:00;1.40;99.90
17571;DHT22;8903;52.220;20.978;2022-12-07T15:02:31;1.40;99.90
17571;DHT22;8903;52.220;20.978;2022-12-07T15:05:11;1.50;99.90
17571;DHT22;8903;52.220;20.978;2022-12-07T15:07:49;1.40;99.90
17571;DHT22;8903;52.220;20.978;2022-12-07T15:10:25;1.30;99.90
17571;DHT22;8903;52.220;20.978;2022-12-07T15:13:01;1.40;99.90
17571;DHT22;8903;52.220;20.978;2022-12-07T15:16:04;1.30;99.90
17571;DHT22;8903;52.220;20.978;2022-12-07T15:18:32;1.40;99.90
17571;DHT22;8903;52.220;20.978;2022-12-07T15:20:59;1.40;99.90
17571;DHT22;8903;52.220;20.978;2022-12-07T15:23:55;1.40;99.90
17571;DHT22;8903;52.220;20.978;2022-12-07T15:26:45;1.40;99.90
17571;DHT22;8903;52.220;20.978;2022-12-07T15:29:32;1.40;99.90
17571;DHT22;8903;52.220;20.978;2022-12-07T15:35:41;1.50;99.90
17571;DHT22;8903;52.220;20.978;2022-12-07T15:38:27;1.50;99.90
17571;DHT22;8903;52.220;20.978;2022-12-07T15:41:03;1.50;99.90
17571;DHT22;8903;52.220;20.978;2022-12-07T15:43:36;1.50;99.90
17571;DHT22;8903;52.220;20.978;2022-12-07T15:46:22;1.50;99.90
17571;DHT22;8903;52.220;20.978;2022-12-07T15:48:49;1.50;99.90
17571;DHT22;8903;52.220;20.978;2022-12-07T15:51:18;1.50;99.90
17571;DHT22;8903;52.220;20.978;2022-12-07T15:53:45;1.50;99.90
17571;DHT22;8903;52.220;20.978;2022-12-07T15:56:14;1.50;99.90
17571;DHT22;8903;52.220;20.978;2022-12-07T15:58:55;1.60;99.90
17571;DHT22;8903;52.220;20.978;2022-12-07T16:01:33;1.60;99.90
17571;DHT22;8903;52.220;20.978;2022-12-07T16:04:05;1.60;99.90
17571;DHT22;8903;52.220;20.978;2022-12-07T16:06:43;1.60;99.90
17571;DHT22;8903;52.220;20.978;2022-12-07T16:09:15;1.60;99.90
17571;DHT22;8903;52.220;20.978;2022-12-07T16:15:01;1.70;99.90
17571;DHT22;8903;52.220;20.978;2022-12-07T16:17:36;1.70;99.90
17571;DHT22;8903;52.220;20.978;2022-12-07T16:20:06;1.80;99.90
17571;DHT22;8903;52.220;20.978;2022-12-07T16:22:38;1.70;99.90
17571;DHT22;8903;52.220;20.978;2022-12-07T16:25:06;1.70;99.90
17571;DHT22;8903;52.220;20.978;2022-12-07T16:27:33;1.80;99.90
17571;DHT22;8903;52.220;20.978;2022-12-07T16:30:03;1.80;99.90
17571;DHT22;8903;52.220;20.978;2022-12-07T16:32:30;1.80;99.90
17571;DHT22;8903;52.220;20.978;2022-12-07T16:34:57;1.80;99.90
17571;DHT22;8903;52.220;20.978;2022-12-07T16:37:24;1.80;99.90